createdAt,value
2019-03-08T00:01:53.011Z,97079.91
2019-03-08T00:04:23.356Z,97080.53
2019-03-08T00:06:53.638Z,97075.94
2019-03-08T00:09:23.934Z,97081.55
2019-03-08T00:11:54.298Z,97086.06
2019-03-08T00:14:24.530Z,97078.68
2019-03-08T00:16:54.881Z,97083.08
2019-03-08T00:19:44.495Z,97086.22
2019-03-08T00:22:14.872Z,97084.14
2019-03-08T00:24:45.522Z,97082.25
2019-03-08T00:27:15.919Z,97084.92
2019-03-08T00:29:46.415Z,97087.59
2019-03-08T00:32:16.878Z,97088.62
2019-03-08T00:34:47.155Z,97090.03
2019-03-08T00:37:17.446Z,97100.20
2019-03-08T00:39:47.629Z,97099.09
2019-03-08T00:42:18.024Z,97099.56
2019-03-08T00:44:48.297Z,97096.09
2019-03-08T00:47:18.579Z,97096.46
2019-03-08T00:49:48.802Z,97097.94
2019-03-08T00:52:19.162Z,97106.98
2019-03-08T00:54:49.401Z,97115.61
2019-03-08T00:57:19.875Z,97112.94
2019-03-08T00:59:50.176Z,97112.77
2019-03-08T01:02:20.432Z,97114.13
2019-03-08T01:04:50.846Z,97113.46
2019-03-08T01:07:21.262Z,97114.60
2019-03-08T01:09:51.635Z,97114.60
2019-03-08T01:12:21.893Z,97113.27
2019-03-08T01:14:52.111Z,97112.05
2019-03-08T01:17:22.582Z,97114.86
2019-03-08T01:19:52.891Z,97111.95
2019-03-08T01:22:23.198Z,97110.00
2019-03-08T01:24:53.557Z,97115.09
2019-03-08T01:27:23.819Z,97109.89
2019-03-08T01:29:54.171Z,97107.38
2019-03-08T01:32:24.517Z,97111.97
2019-03-08T01:34:54.928Z,97117.63
2019-03-08T01:37:25.315Z,97119.72
2019-03-08T01:39:55.679Z,97118.69
2019-03-08T01:42:26.017Z,97126.10
2019-03-08T01:44:56.375Z,97122.08
2019-03-08T01:47:28.524Z,97126.79
2019-03-08T01:49:58.781Z,97130.17
2019-03-08T01:52:29.120Z,97134.09
2019-03-08T01:54:59.373Z,97137.02
2019-03-08T01:57:29.505Z,97134.58
2019-03-08T01:59:59.695Z,97136.79
2019-03-08T02:02:30.053Z,97135.67
2019-03-08T02:05:00.360Z,97132.87
2019-03-08T02:07:30.659Z,97135.23
2019-03-08T02:10:00.956Z,97132.74
2019-03-08T02:12:31.276Z,97140.14
2019-03-08T02:15:01.555Z,97146.06
2019-03-08T02:17:32.015Z,97147.99
2019-03-08T02:20:02.502Z,97142.72
2019-03-08T02:22:32.676Z,97144.17
2019-03-08T02:25:02.946Z,97148.33
2019-03-08T02:27:33.273Z,97143.06
2019-03-08T02:30:03.731Z,97140.50
2019-03-08T02:32:34.113Z,97147.38
2019-03-08T02:35:04.944Z,97134.59
2019-03-08T02:37:35.163Z,97128.34
2019-03-08T02:40:23.316Z,97129.32
2019-03-08T02:42:53.547Z,97119.96
2019-03-08T02:45:23.924Z,97128.73
2019-03-08T02:47:54.303Z,97134.20
2019-03-08T02:50:24.660Z,97141.39
2019-03-08T02:52:55.053Z,97143.19
2019-03-08T02:55:25.272Z,97134.33
2019-03-08T02:57:55.664Z,97143.10
2019-03-08T03:00:31.049Z,97136.42
2019-03-08T03:03:01.461Z,97150.30
2019-03-08T03:05:31.793Z,97154.49
2019-03-08T03:08:02.113Z,97162.40
2019-03-08T03:10:32.389Z,97162.46
2019-03-08T03:13:02.552Z,97186.61
2019-03-08T03:15:40.119Z,97199.42
2019-03-08T03:18:12.543Z,97203.35
2019-03-08T03:20:42.524Z,97213.71
2019-03-08T03:23:12.783Z,97233.59
2019-03-08T03:25:43.212Z,97226.97
2019-03-08T03:28:13.636Z,97223.23
2019-03-08T03:30:43.995Z,97226.13
2019-03-08T03:33:14.513Z,97229.98
2019-03-08T03:35:44.870Z,97222.89
2019-03-08T03:38:15.185Z,97222.16
2019-03-08T03:40:45.672Z,97220.39
2019-03-08T03:43:16.016Z,97228.64
2019-03-08T03:45:46.408Z,97231.16
2019-03-08T03:48:16.774Z,97228.34
2019-03-08T03:50:46.996Z,97230.28
2019-03-08T03:53:17.321Z,97231.14
2019-03-08T03:55:47.541Z,97232.92
2019-03-08T03:58:17.759Z,97230.15
2019-03-08T04:00:48.107Z,97238.06
2019-03-08T04:03:18.456Z,97244.53
2019-03-08T04:05:48.828Z,97254.33
2019-03-08T04:08:19.132Z,97258.05
2019-03-08T04:10:49.371Z,97267.94
2019-03-08T04:13:19.764Z,97272.91
2019-03-08T04:15:50.047Z,97276.15
2019-03-08T04:18:20.390Z,97278.09
2019-03-08T04:20:50.851Z,97268.95
2019-03-08T04:23:21.084Z,97274.13
2019-03-08T04:25:51.501Z,97277.26
2019-03-08T04:28:21.778Z,97277.63
2019-03-08T04:30:52.000Z,97283.12
2019-03-08T04:33:22.371Z,97287.98
2019-03-08T04:35:52.693Z,97286.33
2019-03-08T04:38:23.233Z,97285.92
2019-03-08T04:40:53.499Z,97297.56
2019-03-08T04:43:23.684Z,97304.67
2019-03-08T04:45:53.910Z,97306.05
2019-03-08T04:48:24.030Z,97322.14
2019-03-08T04:50:54.313Z,97309.36
2019-03-08T04:53:24.522Z,97316.72
2019-03-08T04:55:54.846Z,97313.35
2019-03-08T04:58:25.141Z,97311.52
2019-03-08T05:00:55.558Z,97312.03
2019-03-08T05:03:26.004Z,97310.02
2019-03-08T05:05:56.371Z,97312.65
2019-03-08T05:08:26.747Z,97317.53
2019-03-08T05:10:57.085Z,97313.92
2019-03-08T05:13:27.306Z,97318.93
2019-03-08T05:15:57.739Z,97317.63
2019-03-08T05:18:27.947Z,97319.90
2019-03-08T05:20:58.151Z,97322.33
2019-03-08T05:23:28.360Z,97321.13
2019-03-08T05:25:58.519Z,97316.44
2019-03-08T05:28:28.828Z,97320.34
2019-03-08T05:30:59.390Z,97320.25
2019-03-08T05:33:29.583Z,97325.48
2019-03-08T05:35:59.899Z,97326.08
2019-03-08T05:38:30.030Z,97330.74
2019-03-08T05:41:00.343Z,97338.29
2019-03-08T05:43:30.551Z,97327.79
2019-03-08T05:46:00.790Z,97336.59
2019-03-08T05:48:31.145Z,97349.52
2019-03-08T05:51:01.445Z,97357.55
2019-03-08T05:53:31.748Z,97359.77
2019-03-08T05:56:01.979Z,97363.92
2019-03-08T05:58:32.266Z,97371.90
2019-03-08T06:01:02.655Z,97368.73
2019-03-08T06:03:32.964Z,97370.87
2019-03-08T06:06:03.319Z,97373.78
2019-03-08T06:08:33.459Z,97370.87
2019-03-08T06:11:04.194Z,97378.55
2019-03-08T06:13:34.564Z,97381.83
2019-03-08T06:16:04.893Z,97382.19
2019-03-08T06:18:35.123Z,97386.02
2019-03-08T06:21:05.519Z,97396.19
2019-03-08T06:23:35.756Z,97395.02
2019-03-08T06:26:06.266Z,97399.55
2019-03-08T06:28:36.628Z,97403.52
2019-03-08T06:31:06.935Z,97406.16
2019-03-08T06:33:37.171Z,97411.36
2019-03-08T06:36:07.611Z,97412.52
2019-03-08T06:38:38.119Z,97415.04
2019-03-08T06:41:08.451Z,97421.45
2019-03-08T06:43:38.670Z,97423.28
2019-03-08T06:46:09.088Z,97426.05
2019-03-08T06:48:39.421Z,97430.33
2019-03-08T06:51:09.764Z,97442.73
2019-03-08T06:53:40.112Z,97444.52
2019-03-08T06:56:10.433Z,97446.10
2019-03-08T06:59:02.585Z,97451.20
2019-03-08T07:01:36.324Z,97457.50
2019-03-08T07:04:06.701Z,97454.23
2019-03-08T07:06:37.059Z,97453.48
2019-03-08T07:09:08.953Z,97465.44
2019-03-08T07:11:39.339Z,97467.57
2019-03-08T07:14:09.829Z,97468.75
2019-03-08T07:16:40.127Z,97474.53
2019-03-08T07:19:10.323Z,97486.05
2019-03-08T07:21:55.689Z,97486.06
2019-03-08T07:24:51.242Z,97493.11
2019-03-08T07:27:28.827Z,97493.61
2019-03-08T07:30:24.010Z,97499.90
2019-03-08T07:33:08.755Z,97506.19
2019-03-08T07:36:03.877Z,97512.80
2019-03-08T07:38:54.683Z,97525.45
2019-03-08T07:41:46.996Z,97531.28
2019-03-08T07:44:34.836Z,97541.54
2019-03-08T07:47:17.906Z,97548.02
2019-03-08T07:50:10.127Z,97551.38
2019-03-08T07:52:45.073Z,97562.58
2019-03-08T07:55:22.334Z,97569.03
2019-03-08T07:58:08.831Z,97571.86
2019-03-08T08:01:07.386Z,97578.42
2019-03-08T08:03:55.191Z,97575.09
2019-03-08T08:06:43.410Z,97581.72
2019-03-08T08:09:35.732Z,97589.14
2019-03-08T08:12:15.125Z,97593.31
2019-03-08T08:15:13.245Z,97590.59
2019-03-08T08:17:52.592Z,97597.70
2019-03-08T08:20:40.570Z,97598.55
2019-03-08T08:23:42.175Z,97611.61
2019-03-08T08:26:21.709Z,97614.02
2019-03-08T08:29:34.909Z,97610.28
2019-03-08T08:32:18.925Z,97626.34
2019-03-08T08:35:01.912Z,97629.61
2019-03-08T08:37:57.433Z,97629.77
2019-03-08T08:40:41.385Z,97639.61
2019-03-08T08:43:36.679Z,97643.44
2019-03-08T08:46:16.032Z,97644.14
2019-03-08T08:49:04.166Z,97652.11
2019-03-08T08:51:44.015Z,97647.95
2019-03-08T08:54:36.355Z,97657.25
2019-03-08T08:57:24.907Z,97654.06
2019-03-08T09:00:10.856Z,97655.72
2019-03-08T09:02:47.706Z,97661.28
2019-03-08T09:05:39.810Z,97662.55
2019-03-08T09:08:27.240Z,97672.30
2019-03-08T09:11:08.708Z,97653.41
2019-03-08T09:13:52.598Z,97663.25
2019-03-08T09:16:40.976Z,97662.22
2019-03-08T09:19:33.316Z,97665.98
2019-03-08T09:22:37.615Z,97668.97
2019-03-08T09:25:30.182Z,97662.12
2019-03-08T09:28:22.281Z,97664.01
2019-03-08T09:31:13.860Z,97662.30
2019-03-08T09:34:06.003Z,97668.74
2019-03-08T09:37:01.145Z,97670.80
2019-03-08T09:39:50.224Z,97669.14
2019-03-08T09:42:41.638Z,97664.30
2019-03-08T09:45:43.206Z,97677.03
2019-03-08T09:48:26.907Z,97684.30
2019-03-08T09:51:02.775Z,97683.53
2019-03-08T09:54:07.482Z,97685.59
2019-03-08T09:56:44.864Z,97687.07
2019-03-08T09:59:36.981Z,97690.83
2019-03-08T10:02:14.811Z,97685.31
2019-03-08T10:05:02.762Z,97691.77
2019-03-08T10:07:50.881Z,97700.36
2019-03-08T10:10:40.917Z,97714.69
2019-03-08T10:13:23.201Z,97715.83
2019-03-08T10:16:00.939Z,97705.41
2019-03-08T10:19:08.365Z,97714.81
2019-03-08T10:21:56.113Z,97707.03
2019-03-08T10:24:32.663Z,97716.16
2019-03-08T10:27:21.974Z,97716.86
2019-03-08T10:30:10.511Z,97723.17
2019-03-08T10:32:45.869Z,97724.55
2019-03-08T10:35:32.901Z,97707.78
2019-03-08T10:38:22.341Z,97726.41
2019-03-08T10:41:12.258Z,97731.19
2019-03-08T10:43:47.485Z,97729.94
2019-03-08T10:46:30.637Z,97738.66
2019-03-08T10:49:09.804Z,97744.52
2019-03-08T10:51:53.284Z,97748.98
2019-03-08T10:54:40.951Z,97763.00
2019-03-08T10:57:33.155Z,97753.64
2019-03-08T11:00:16.456Z,97759.97
2019-03-08T11:03:20.983Z,97762.63
2019-03-08T11:06:08.532Z,97760.19
2019-03-08T11:08:44.977Z,97769.78
2019-03-08T11:11:31.974Z,97778.73
2019-03-08T11:14:19.857Z,97760.20
2019-03-08T11:17:07.077Z,97775.72
2019-03-08T11:19:56.332Z,97770.09
2019-03-08T11:22:51.897Z,97764.84
2019-03-08T11:25:39.823Z,97768.88
2019-03-08T11:28:32.163Z,97773.03
2019-03-08T11:31:09.616Z,97771.06
2019-03-08T11:34:02.039Z,97779.16
2019-03-08T11:36:39.536Z,97788.25
2019-03-08T11:39:28.774Z,97789.01
2019-03-08T11:42:13.232Z,97783.16
2019-03-08T11:44:52.190Z,97787.26
2019-03-08T11:47:56.553Z,97788.59
2019-03-08T11:51:04.185Z,97787.85
2019-03-08T11:53:56.264Z,97780.38
2019-03-08T11:56:41.244Z,97776.75
2019-03-08T11:59:29.332Z,97781.11
2019-03-08T12:02:18.579Z,97778.77
2019-03-08T12:05:07.955Z,97791.67
2019-03-08T12:07:48.825Z,97785.53
2019-03-08T12:10:30.499Z,97787.78
2019-03-08T12:13:11.078Z,97777.31
2019-03-08T12:15:58.812Z,97783.84
2019-03-08T12:18:57.010Z,97793.93
2019-03-08T12:21:34.551Z,97787.78
2019-03-08T12:24:10.187Z,97782.02
2019-03-08T12:26:47.715Z,97794.81
2019-03-08T12:29:26.761Z,97784.22
2019-03-08T12:32:12.336Z,97785.11
2019-03-08T12:35:00.296Z,97781.55
2019-03-08T12:37:55.610Z,97777.72
2019-03-08T12:40:47.941Z,97774.60
2019-03-08T12:43:35.743Z,97773.44
2019-03-08T12:46:16.073Z,97777.31
2019-03-08T12:49:08.276Z,97769.89
2019-03-08T12:51:46.961Z,97774.98
2019-03-08T12:54:48.633Z,97777.70
2019-03-08T12:57:30.367Z,97778.36
2019-03-08T13:00:38.115Z,97778.50
2019-03-08T13:03:27.574Z,97788.45
2019-03-08T13:06:11.914Z,97787.87
2019-03-08T13:09:09.744Z,97783.87
2019-03-08T13:11:40.103Z,97791.58
2019-03-08T13:14:10.466Z,97798.77
2019-03-08T13:16:40.801Z,97801.30
2019-03-08T13:19:11.146Z,97804.37
2019-03-08T13:21:41.608Z,97823.02
2019-03-08T13:24:12.556Z,97813.08
2019-03-08T13:26:42.970Z,97812.28
2019-03-08T13:29:13.388Z,97799.39
2019-03-08T13:31:43.748Z,97809.95
2019-03-08T13:34:14.125Z,97807.74
2019-03-08T13:36:44.454Z,97809.90
2019-03-08T13:39:14.800Z,97831.02
2019-03-08T13:41:45.164Z,97815.94
2019-03-08T13:44:15.599Z,97809.05
2019-03-08T13:46:46.059Z,97809.62
2019-03-08T13:49:16.375Z,97814.60
2019-03-08T13:51:47.987Z,97815.23
2019-03-08T13:54:18.299Z,97831.02
2019-03-08T13:56:48.559Z,97830.27
2019-03-08T13:59:18.953Z,97849.64
2019-03-08T14:02:08.485Z,97862.96
2019-03-08T14:04:39.219Z,97846.98
2019-03-08T14:07:09.635Z,97858.84
2019-03-08T14:09:39.917Z,97853.34
2019-03-08T14:12:10.559Z,97854.69
2019-03-08T14:14:40.810Z,97864.30
2019-03-08T14:17:11.242Z,97872.23
2019-03-08T14:19:41.521Z,97871.91
2019-03-08T14:22:11.847Z,97873.48
2019-03-08T14:24:42.248Z,97861.09
2019-03-08T14:27:12.543Z,97869.23
2019-03-08T14:29:42.843Z,97869.03
2019-03-08T14:32:21.291Z,97880.06
2019-03-08T14:34:49.645Z,97876.84
2019-03-08T14:37:21.534Z,97863.38
2019-03-08T14:39:51.955Z,97859.77
2019-03-08T14:42:40.401Z,97861.69
2019-03-08T14:45:40.575Z,97861.73
2019-03-08T14:48:10.768Z,97856.77
2019-03-08T14:50:41.423Z,97863.34
2019-03-08T14:53:11.784Z,97862.33
2019-03-08T14:55:42.127Z,97858.30
2019-03-08T14:58:12.528Z,97858.08
2019-03-08T15:00:42.846Z,97865.18
2019-03-08T15:03:13.341Z,97860.89
2019-03-08T15:05:43.701Z,97854.92
2019-03-08T15:08:17.875Z,97864.12
2019-03-08T15:10:47.187Z,97857.34
2019-03-08T15:13:20.058Z,97853.82
2019-03-08T15:15:49.919Z,97865.84
2019-03-08T15:18:20.373Z,97855.67
2019-03-08T15:20:50.936Z,97855.03
2019-03-08T15:23:21.385Z,97853.56
2019-03-08T15:25:51.749Z,97851.19
2019-03-08T15:28:22.184Z,97844.77
2019-03-08T15:30:52.734Z,97850.91
2019-03-08T15:33:23.189Z,97857.56
2019-03-08T15:35:53.619Z,97865.97
2019-03-08T15:38:23.979Z,97867.77
2019-03-08T15:40:54.292Z,97857.06
2019-03-08T15:43:25.221Z,97863.33
2019-03-08T15:45:55.834Z,97860.19
2019-03-08T15:48:26.246Z,97863.12
2019-03-08T15:50:56.696Z,97861.52
2019-03-08T15:53:27.297Z,97859.59
2019-03-08T15:55:57.645Z,97856.09
2019-03-08T15:58:28.025Z,97845.72
2019-03-08T16:00:58.489Z,97853.59
2019-03-08T16:03:30.094Z,97858.06
2019-03-08T16:06:02.992Z,97861.05
2019-03-08T16:08:35.784Z,97859.61
2019-03-08T16:11:05.065Z,97854.30
2019-03-08T16:13:35.547Z,97871.52
2019-03-08T16:16:06.039Z,97877.97
2019-03-08T16:18:36.248Z,97870.28
2019-03-08T16:21:06.599Z,97867.77
2019-03-08T16:23:36.843Z,97871.75
2019-03-08T16:26:07.357Z,97862.31
2019-03-08T16:28:37.872Z,97860.83
2019-03-08T16:31:21.734Z,97868.31
2019-03-08T16:33:53.507Z,97861.93
2019-03-08T16:36:32.841Z,97854.67
2019-03-08T16:39:26.717Z,97867.25
2019-03-08T16:42:18.713Z,97863.08
2019-03-08T16:45:06.234Z,97870.31
2019-03-08T16:47:53.347Z,97871.31
2019-03-08T16:50:48.152Z,97881.20
2019-03-08T16:53:30.024Z,97881.05
2019-03-08T16:56:10.345Z,97879.11
2019-03-08T16:59:02.654Z,97878.17
2019-03-08T17:01:44.299Z,97881.78
2019-03-08T17:04:23.423Z,97892.38
2019-03-08T17:07:06.983Z,97900.84
2019-03-08T17:09:57.591Z,97895.37
2019-03-08T17:12:55.954Z,97895.69
2019-03-08T17:15:54.419Z,97899.22
2019-03-08T17:18:42.772Z,97905.95
2019-03-08T17:21:30.005Z,97914.68
2019-03-08T17:24:28.478Z,97914.70
2019-03-08T17:27:29.792Z,97918.84
2019-03-08T17:30:15.507Z,97918.58
2019-03-08T17:33:17.156Z,97915.36
2019-03-08T17:36:05.478Z,97918.08
2019-03-08T17:39:00.882Z,97924.60
2019-03-08T17:41:43.595Z,97931.66
2019-03-08T17:44:35.834Z,97943.15
2019-03-08T17:47:14.163Z,97937.92
2019-03-08T17:50:00.498Z,97941.45
2019-03-08T17:53:08.026Z,97950.87
2019-03-08T17:56:03.697Z,97952.95
2019-03-08T17:58:42.095Z,97943.18
2019-03-08T18:01:31.325Z,97967.46
2019-03-08T18:04:23.457Z,97960.27
2019-03-08T18:07:11.507Z,97962.61
2019-03-08T18:10:19.338Z,97958.81
2019-03-08T18:13:17.883Z,97964.76
2019-03-08T18:16:12.743Z,97960.20
2019-03-08T18:19:00.551Z,97959.27
2019-03-08T18:21:52.972Z,97965.14
2019-03-08T18:24:44.864Z,97960.47
2019-03-08T18:27:30.652Z,97968.22
2019-03-08T18:30:08.048Z,97970.28
2019-03-08T18:32:59.400Z,97968.22
2019-03-08T18:35:57.082Z,97971.31
2019-03-08T18:38:44.261Z,97975.33
2019-03-08T18:41:36.456Z,97980.92
2019-03-08T18:44:24.796Z,97979.09
2019-03-08T18:47:14.090Z,97992.50
2019-03-08T18:50:00.554Z,97994.98
2019-03-08T18:52:48.431Z,98002.63
2019-03-08T18:55:36.733Z,98005.20
2019-03-08T18:58:19.977Z,98001.95
2019-03-08T19:01:03.656Z,97998.08
2019-03-08T19:03:52.894Z,97994.27
2019-03-08T19:06:29.409Z,97992.36
2019-03-08T19:09:21.624Z,97993.58
2019-03-08T19:12:13.754Z,97994.02
2019-03-08T19:15:21.043Z,97987.84
2019-03-08T19:18:08.825Z,97994.84
2019-03-08T19:20:49.860Z,97987.63
2019-03-08T19:23:37.654Z,97987.32
2019-03-08T19:26:36.363Z,97987.16
2019-03-08T19:29:25.681Z,97994.88
2019-03-08T19:32:13.834Z,97995.73
2019-03-08T19:34:49.812Z,97988.67
2019-03-08T19:37:39.112Z,97996.53
2019-03-08T19:40:23.155Z,97997.86
2019-03-08T19:43:12.451Z,97998.73
2019-03-08T19:46:01.902Z,98006.75
2019-03-08T19:48:53.953Z,98003.02
2019-03-08T19:51:39.675Z,98003.73
2019-03-08T19:54:14.786Z,97999.38
2019-03-08T19:56:51.145Z,97996.66
2019-03-08T19:59:55.693Z,98001.01
2019-03-08T20:02:42.468Z,98008.12
2019-03-08T20:05:24.937Z,98010.81
2019-03-08T20:08:03.046Z,98004.84
2019-03-08T20:10:50.432Z,98011.77
2019-03-08T20:13:39.726Z,98012.00
2019-03-08T20:16:32.550Z,98015.48
2019-03-08T20:19:37.064Z,98022.48
2019-03-08T20:22:24.095Z,98026.37
2019-03-08T20:25:25.731Z,98025.72
2019-03-08T20:28:11.802Z,98020.83
2019-03-08T20:30:56.457Z,98025.78
2019-03-08T20:33:44.764Z,98026.47
2019-03-08T20:36:40.188Z,98026.41
2019-03-08T20:39:29.515Z,98029.46
2019-03-08T20:42:04.272Z,98030.96
2019-03-08T20:44:41.616Z,98024.48
2019-03-08T20:47:15.352Z,98029.60
2019-03-08T20:49:45.691Z,98032.22
2019-03-08T20:52:16.117Z,98033.54
2019-03-08T20:54:46.522Z,98035.13
2019-03-08T20:57:16.898Z,98032.63
2019-03-08T20:59:47.270Z,98025.36
2019-03-08T21:03:35.829Z,98021.66
2019-03-08T21:06:06.713Z,98027.19
2019-03-08T21:08:37.205Z,98026.71
2019-03-08T21:11:07.559Z,98022.95
2019-03-08T21:13:37.868Z,98021.63
2019-03-08T21:16:08.194Z,98016.41
2019-03-08T21:18:38.515Z,98011.86
2019-03-08T21:21:08.877Z,98015.73
2019-03-08T21:23:39.143Z,98020.61
2019-03-08T21:26:09.613Z,98012.78
2019-03-08T21:28:40.109Z,98016.84
2019-03-08T21:31:10.334Z,98020.14
2019-03-08T21:33:40.702Z,98024.50
2019-03-08T21:36:11.127Z,98015.86
2019-03-08T21:38:41.537Z,98019.97
2019-03-08T21:41:12.097Z,98019.16
2019-03-08T21:43:42.403Z,98013.19
2019-03-08T21:46:12.774Z,98012.81
2019-03-08T21:48:42.995Z,98012.16
2019-03-08T21:51:13.346Z,98009.21
2019-03-08T21:53:43.659Z,98005.69
2019-03-08T21:56:14.107Z,98002.19
2019-03-08T21:58:44.420Z,98003.88
2019-03-08T22:01:14.938Z,97996.01
2019-03-08T22:03:49.248Z,97991.63
2019-03-08T22:06:19.686Z,97982.14
2019-03-08T22:09:00.963Z,97987.81
2019-03-08T22:11:39.528Z,97986.77
2019-03-08T22:14:09.856Z,97982.09
2019-03-08T22:16:40.303Z,97982.88
2019-03-08T22:19:10.617Z,97975.53
2019-03-08T22:21:41.047Z,97968.70
2019-03-08T22:24:13.667Z,97969.72
2019-03-08T22:26:43.604Z,97975.68
2019-03-08T22:29:13.995Z,97972.87
2019-03-08T22:31:44.213Z,97968.97
2019-03-08T22:34:14.534Z,97968.00
2019-03-08T22:36:44.965Z,97967.44
2019-03-08T22:39:15.204Z,97959.39
2019-03-08T22:41:45.516Z,97966.98
2019-03-08T22:44:15.650Z,97965.14
2019-03-08T22:46:46.104Z,97964.03
2019-03-08T22:49:16.942Z,97957.50
2019-03-08T22:51:47.141Z,97952.55
2019-03-08T22:54:17.461Z,97950.98
2019-03-08T22:56:47.603Z,97940.54
2019-03-08T22:59:17.798Z,97941.59
2019-03-08T23:01:51.567Z,97938.34
2019-03-08T23:04:22.028Z,97931.81
2019-03-08T23:06:52.409Z,97933.66
2019-03-08T23:09:22.689Z,97926.94
2019-03-08T23:11:53.069Z,97923.56
2019-03-08T23:14:23.424Z,97921.79
2019-03-08T23:16:53.862Z,97921.94
2019-03-08T23:19:24.097Z,97917.00
2019-03-08T23:21:54.481Z,97917.97
2019-03-08T23:24:24.865Z,97913.84
2019-03-08T23:27:06.578Z,97921.13
2019-03-08T23:29:41.696Z,97914.14
2019-03-08T23:32:19.394Z,97911.79
2019-03-08T23:34:49.684Z,97915.75
2019-03-08T23:37:19.887Z,97913.69
2019-03-08T23:39:50.189Z,97918.41
2019-03-08T23:42:20.562Z,97919.14
2019-03-08T23:44:50.796Z,97918.16
2019-03-08T23:47:21.185Z,97921.66
2019-03-08T23:49:51.523Z,97913.71
2019-03-08T23:52:21.933Z,97901.55
2019-03-08T23:54:52.334Z,97905.41
2019-03-08T23:57:22.647Z,97911.26
2019-03-08T23:59:52.910Z,97905.69
